To NAV CANADA Home Page Login to a new session Search on AWWS site Disclaimer Vers la page française équivalente Tips FAQ What's new on the site To the Forecasts and Observations / NOTAM section To "File a Flight Plan" website Publications and other links Update of the User's profile FIC Telephone Numbers My Weather Data Folder Route Weather Data Regional Weather Data Local Weather Data To the Forecasts and Observations / NOTAM section
Request Generated 03/19/2019 at 23:30:52 UTC . Weather information available at that time is displayed.

METAR/TAF

TUKTOYAKTUK/JAMES GRUBEN/NT    

SPECI CYUB 192312Z 27007KT 15SM BKN012 M07/M10 A2961 RMK SC7 SLP028=
METAR CYUB 192300Z 27007KT 15SM BKN015 M07/M10 A2961 RMK SC7 SLP027=
METAR CYUB 192200Z 25008KT 15SM BKN015 OVC030 M07/M09 A2960 RMK SC7SC1 SLP025=
SPECI CYUB 192144Z 26008KT 15SM BKN015 OVC030 M07/M09 A2959 RMK SC7SC1 CIG RAG SLP023=
METAR CYUB 192100Z 25005KT 10SM BKN011 OVC033 M07/M09 A2959 RMK SC6SC2 SLP021=

TAF AMD CYUB 191905Z 1919/2005 VRB03KT 6SM -SN BR OVC025 TEMPO
1919/1921 2SM -SN BR VV008
FM192100 26006KT P6SM BKN030 TEMPO 1921/2005 SCT005 OVC020
BECMG 2000/2002 27015G25KT
RMK NXT FCST BY 200100Z=
Your time UTC time
Weather data provided by Environment Canada and NAV CANADA